Time;durP1;ratioP1;P1;durP2;ratioP2;P2;SDS_P1;SDS_P2;PMS_P1;PMS_P2;Temp;Humidity;BMP_temperature;BMP_pressure;BME280_temperature;BME280_humidity;BME280_pressure;Samples;Min_cycle;Max_cycle;Signal;HPM_P1;HPM_P2
2023/12/26 00:00:30;;;;;;;;;;;;;;;29.59;24.26;97394.38;5098372;28;19953;-89
2023/12/26 00:02:57;;;;;;;;;;;;;;;29.53;24.11;97401.16;5100329;27;19916;-89
2023/12/26 00:05:23;;;;;;;;;;;;;;;29.55;24.26;97407.13;5103472;27;19965;-89
2023/12/26 00:07:49;;;;;;;;;;;;;;;29.47;24.53;97406.75;5102377;28;19934;-89
2023/12/26 00:10:15;;;;;;;;;;;;;;;29.57;23.97;97396.13;5098589;28;20295;-89
2023/12/26 00:12:42;;;;;;;;;;;;;;;29.73;23.77;97401.28;5100917;28;20375;-89
2023/12/26 00:15:09;;;;;;;;;;;;;;;29.84;23.42;97390.16;5097965;28;19920;-88
2023/12/26 00:17:35;;;;;;;;;;;;;;;29.67;23.70;97392.69;5101061;28;19928;-88
2023/12/26 00:20:02;;;;;;;;;;;;;;;29.71;23.73;97398.91;5098982;27;21062;-89
2023/12/26 00:22:28;;;;;;;;;;;;;;;29.40;23.45;97390.16;5095606;28;20386;-88
2023/12/26 00:24:54;;;;;;;;;;;;;;;29.19;24.10;97385.66;5103057;28;19919;-89
2023/12/26 00:27:20;;;;;;;;;;;;;;;29.33;23.81;97382.84;5078909;28;20383;-89
2023/12/26 00:29:46;;;;;;;;;;;;;;;29.38;23.13;97382.16;5101547;27;20321;-88
2023/12/26 00:32:12;;;;;;;;;;;;;;;29.45;23.57;97391.53;5100717;27;20371;-89
2023/12/26 00:34:38;;;;;;;;;;;;;;;29.31;23.64;97390.25;5097257;28;19998;-89
2023/12/26 00:37:04;;;;;;;;;;;;;;;29.07;23.96;97390.28;5098327;28;19990;-89
2023/12/26 00:39:30;;;;;;;;;;;;;;;29.16;23.67;97387.38;5097080;27;19919;-90
2023/12/26 00:41:56;;;;;;;;;;;;;;;28.88;24.18;97388.88;5102524;28;19928;-90
2023/12/26 00:44:22;;;;;;;;;;;;;;;29.10;24.03;97394.94;5096097;28;20410;-90
2023/12/26 00:46:48;;;;;;;;;;;;;;;28.71;24.33;97385.72;5096349;28;19924;-90
2023/12/26 00:49:14;;;;;;;;;;;;;;;28.51;24.54;97387.56;5098453;28;19932;-89
2023/12/26 00:51:40;;;;;;;;;;;;;;;28.65;24.54;97387.66;5100240;28;19924;-89
2023/12/26 00:54:06;;;;;;;;;;;;;;;28.67;24.34;97393.59;5102123;27;19963;-90
2023/12/26 00:56:32;;;;;;;;;;;;;;;28.44;24.60;97394.34;5102036;28;19932;-90
2023/12/26 00:58:58;;;;;;;;;;;;;;;28.33;24.69;97398.97;5101380;28;19952;-90
2023/12/26 01:01:24;;;;;;;;;;;;;;;28.53;24.48;97391.47;5102324;28;19923;-91
2023/12/26 01:03:50;;;;;;;;;;;;;;;28.26;24.72;97404.97;5099249;28;19959;-91
2023/12/26 01:06:16;;;;;;;;;;;;;;;28.53;24.35;97396.31;5099649;27;20375;-89
2023/12/26 01:08:42;;;;;;;;;;;;;;;28.55;24.25;97388.16;5097766;27;19924;-90
2023/12/26 01:11:08;;;;;;;;;;;;;;;28.26;24.68;97397.28;5081612;28;19919;-90
2023/12/26 01:13:34;;;;;;;;;;;;;;;27.82;25.24;97396.97;5096948;27;19926;-89
2023/12/26 01:16:04;;;;;;;;;;;;;;;28.07;25.10;97384.53;5100189;28;19969;-90
2023/12/26 01:18:31;;;;;;;;;;;;;;;27.85;25.23;97389.59;5096080;27;19959;-90
2023/12/26 01:20:57;;;;;;;;;;;;;;;27.81;25.33;97398.25;5097291;28;19944;-90
2023/12/26 01:23:23;;;;;;;;;;;;;;;27.77;25.16;97402.50;5097430;28;19998;-88
2023/12/26 01:25:49;;;;;;;;;;;;;;;27.73;24.94;97388.53;5098960;28;19921;-88
2023/12/26 01:28:15;;;;;;;;;;;;;;;27.62;25.62;97388.28;5099546;27;19916;-88
2023/12/26 01:30:42;;;;;;;;;;;;;;;27.78;25.44;97387.91;5101060;27;19935;-88
2023/12/26 01:33:08;;;;;;;;;;;;;;;27.98;24.88;97382.47;5102234;28;19988;-89
2023/12/26 01:35:34;;;;;;;;;;;;;;;28.12;24.86;97398.00;5098972;28;20368;-89
2023/12/26 01:38:00;;;;;;;;;;;;;;;27.53;25.44;97390.34;5096747;27;19920;-89
2023/12/26 01:40:26;;;;;;;;;;;;;;;27.73;25.25;97399.81;5096908;27;19932;-88
2023/12/26 01:42:52;;;;;;;;;;;;;;;27.97;24.95;97397.06;5095375;27;20277;-88
2023/12/26 01:45:18;;;;;;;;;;;;;;;27.83;25.21;97401.38;5099202;28;19924;-88
2023/12/26 01:47:46;;;;;;;;;;;;;;;27.79;25.08;97395.13;5098796;27;20433;-90
2023/12/26 01:50:13;;;;;;;;;;;;;;;27.66;25.16;97388.09;5099143;28;19927;-90
2023/12/26 01:52:40;;;;;;;;;;;;;;;27.71;25.15;97393.88;5098862;28;19926;-90
2023/12/26 01:55:07;;;;;;;;;;;;;;;27.60;25.40;97399.25;5102261;28;19977;-90
2023/12/26 01:57:35;;;;;;;;;;;;;;;28.06;25.09;97397.84;5100446;27;19920;-89
2023/12/26 02:00:03;;;;;;;;;;;;;;;27.76;25.21;97392.44;5096705;27;20461;-89
2023/12/26 02:02:30;;;;;;;;;;;;;;;28.12;24.78;97389.53;5094394;27;20387;-89
2023/12/26 02:04:56;;;;;;;;;;;;;;;28.58;24.16;97378.72;5092660;27;19928;-89
2023/12/26 02:07:22;;;;;;;;;;;;;;;28.87;23.68;97366.75;5098361;28;19927;-90
2023/12/26 02:09:48;;;;;;;;;;;;;;;29.20;23.21;97371.03;5095703;27;20302;-89
2023/12/26 02:12:16;;;;;;;;;;;;;;;28.63;23.91;97364.75;5096561;28;19927;-88
2023/12/26 02:14:43;;;;;;;;;;;;;;;28.82;23.31;97365.38;5096390;28;19963;-89
2023/12/26 02:17:12;;;;;;;;;;;;;;;27.86;24.65;97366.56;5093252;28;19982;-90
2023/12/26 02:19:42;;;;;;;;;;;;;;;28.24;24.45;97371.56;5098310;28;19920;-89
2023/12/26 02:22:08;;;;;;;;;;;;;;;28.71;23.44;97363.09;5095522;27;19926;-88
2023/12/26 02:24:34;;;;;;;;;;;;;;;29.12;23.27;97366.22;5095587;28;20415;-88
2023/12/26 02:27:00;;;;;;;;;;;;;;;29.01;23.17;97351.88;5096518;28;20014;-88
2023/12/26 02:29:28;;;;;;;;;;;;;;;28.74;23.53;97352.88;5095374;28;19920;-88
2023/12/26 02:31:54;;;;;;;;;;;;;;;28.44;23.82;97345.56;5093980;28;19926;-88
2023/12/26 02:34:21;;;;;;;;;;;;;;;28.67;23.88;97351.22;5093463;28;20012;-89
2023/12/26 02:36:47;;;;;;;;;;;;;;;28.63;23.67;97341.38;5095033;28;20337;-89
2023/12/26 02:39:13;;;;;;;;;;;;;;;28.55;23.88;97355.03;5094167;27;20320;-89
2023/12/26 02:41:40;;;;;;;;;;;;;;;28.72;23.68;97355.41;5095627;28;20009;-89
2023/12/26 02:44:06;;;;;;;;;;;;;;;28.96;23.50;97355.38;5094459;27;19920;-89
2023/12/26 02:46:32;;;;;;;;;;;;;;;28.91;23.43;97351.19;5078201;28;20053;-89
2023/12/26 02:48:58;;;;;;;;;;;;;;;29.16;23.20;97347.78;5081959;28;20042;-88
2023/12/26 02:51:24;;;;;;;;;;;;;;;29.24;22.65;97342.56;5097015;28;20062;-89
2023/12/26 02:53:51;;;;;;;;;;;;;;;29.33;22.72;97340.44;5093938;28;19928;-89
2023/12/26 02:56:17;;;;;;;;;;;;;;;28.97;22.98;97335.09;5097896;28;20068;-88
2023/12/26 02:58:43;;;;;;;;;;;;;;;28.83;23.03;97326.59;5102223;27;20006;-88
2023/12/26 03:01:09;;;;;;;;;;;;;;;29.04;22.94;97331.88;5102499;27;19939;-89
2023/12/26 03:03:35;;;;;;;;;;;;;;;29.16;22.76;97330.03;5100298;27;19924;-89
2023/12/26 03:06:07;;;;;;;;;;;;;;;28.91;22.83;97322.91;5099084;27;19975;-89
2023/12/26 03:08:33;;;;;;;;;;;;;;;28.94;22.97;97330.41;5102139;28;19920;-89
2023/12/26 03:10:59;;;;;;;;;;;;;;;29.21;22.39;97324.53;5099690;27;19915;-89
2023/12/26 03:13:25;;;;;;;;;;;;;;;29.07;22.67;97325.28;5102074;28;19920;-89
2023/12/26 03:15:51;;;;;;;;;;;;;;;29.05;22.65;97324.97;5101255;27;20196;-88
2023/12/26 03:18:17;;;;;;;;;;;;;;;28.81;22.86;97310.13;5102024;28;19927;-88
2023/12/26 03:20:43;;;;;;;;;;;;;;;28.74;22.90;97308.47;5099725;28;19924;-88
2023/12/26 03:23:09;;;;;;;;;;;;;;;28.71;23.00;97306.59;5101529;27;19916;-88
2023/12/26 03:25:35;;;;;;;;;;;;;;;28.81;22.67;97309.34;5100629;27;20401;-88
2023/12/26 03:28:01;;;;;;;;;;;;;;;28.22;23.56;97308.34;5100420;28;19919;-87
2023/12/26 03:30:27;;;;;;;;;;;;;;;28.54;23.28;97308.28;5102278;27;19923;-88
2023/12/26 03:32:53;;;;;;;;;;;;;;;28.63;23.23;97299.78;5101753;28;19927;-88
2023/12/26 03:35:19;;;;;;;;;;;;;;;28.60;23.22;97305.59;5099151;27;19924;-88
2023/12/26 03:37:45;;;;;;;;;;;;;;;28.38;23.46;97305.13;5096539;28;19920;-88
2023/12/26 03:40:11;;;;;;;;;;;;;;;28.65;23.14;97308.53;5100066;27;19978;-88
2023/12/26 03:42:37;;;;;;;;;;;;;;;28.91;23.00;97308.78;5101504;28;20450;-88
2023/12/26 03:45:03;;;;;;;;;;;;;;;28.73;23.02;97304.06;5098468;28;20053;-88
2023/12/26 03:47:30;;;;;;;;;;;;;;;28.79;22.89;97306.22;5102734;27;19923;-88
2023/12/26 03:49:56;;;;;;;;;;;;;;;28.76;22.94;97302.31;5104059;27;19920;-88
2023/12/26 03:52:22;;;;;;;;;;;;;;;28.87;23.00;97301.75;5099646;27;19930;-88
2023/12/26 03:54:48;;;;;;;;;;;;;;;29.22;22.54;97297.78;5099792;27;20399;-88
2023/12/26 03:57:14;;;;;;;;;;;;;;;29.23;22.62;97290.88;5101493;28;20004;-88
2023/12/26 03:59:40;;;;;;;;;;;;;;;29.04;22.59;97285.88;5099548;27;19920;-87
2023/12/26 04:02:06;;;;;;;;;;;;;;;29.00;22.62;97279.66;5101990;28;19920;-87
2023/12/26 04:04:32;;;;;;;;;;;;;;;29.16;22.65;97288.41;5100588;27;20065;-87
2023/12/26 04:06:58;;;;;;;;;;;;;;;29.02;22.76;97275.06;5097799;28;19922;-87
2023/12/26 04:09:24;;;;;;;;;;;;;;;28.83;23.01;97273.69;5081914;27;19920;-89
2023/12/26 04:11:50;;;;;;;;;;;;;;;29.11;22.93;97269.31;5099725;27;20006;-88
2023/12/26 04:14:16;;;;;;;;;;;;;;;29.24;22.39;97258.50;5100592;27;20284;-88
2023/12/26 04:16:42;;;;;;;;;;;;;;;29.26;22.47;97255.19;5101211;27;20019;-88
2023/12/26 04:19:08;;;;;;;;;;;;;;;29.17;22.56;97253.22;5100451;27;19924;-88
2023/12/26 04:21:34;;;;;;;;;;;;;;;29.10;22.79;97244.38;5101884;27;19927;-88
2023/12/26 04:24:00;;;;;;;;;;;;;;;29.11;22.52;97255.19;5099452;27;19928;-88
2023/12/26 04:26:26;;;;;;;;;;;;;;;28.77;23.01;97255.84;5100580;27;19920;-88
2023/12/26 04:28:52;;;;;;;;;;;;;;;28.95;22.84;97252.06;5099372;28;19985;-88
2023/12/26 04:31:18;;;;;;;;;;;;;;;29.03;22.67;97262.50;5099345;27;19926;-88
2023/12/26 04:33:45;;;;;;;;;;;;;;;29.31;22.63;97260.94;5102405;28;19920;-89
2023/12/26 04:36:11;;;;;;;;;;;;;;;29.26;22.60;97258.03;5096893;27;19964;-88
2023/12/26 04:38:36;;;;;;;;;;;;;;;29.31;22.62;97255.28;5101290;27;19924;-87
2023/12/26 04:41:03;;;;;;;;;;;;;;;29.36;22.69;97251.75;5101688;27;20405;-88
2023/12/26 04:43:29;;;;;;;;;;;;;;;29.39;22.36;97247.19;5099082;27;19916;-88
2023/12/26 04:45:55;;;;;;;;;;;;;;;29.00;22.93;97235.22;5100573;27;20073;-89
2023/12/26 04:48:21;;;;;;;;;;;;;;;29.34;22.55;97234.50;5099369;28;20014;-89
2023/12/26 04:50:47;;;;;;;;;;;;;;;29.47;22.46;97233.41;5098466;28;19916;-89
2023/12/26 04:53:14;;;;;;;;;;;;;;;29.70;22.10;97232.47;5100342;27;19928;-87
2023/12/26 04:55:40;;;;;;;;;;;;;;;29.77;22.13;97221.56;5095893;27;19935;-88
2023/12/26 04:58:06;;;;;;;;;;;;;;;29.43;22.36;97223.06;5095201;27;19924;-88
2023/12/26 05:00:32;;;;;;;;;;;;;;;29.21;22.63;97214.25;5099543;28;19963;-88
2023/12/26 05:02:58;;;;;;;;;;;;;;;28.43;23.29;97200.75;5100757;27;19935;-87
2023/12/26 05:05:25;;;;;;;;;;;;;;;28.54;23.50;97205.84;5098135;27;19927;-87
2023/12/26 05:07:51;;;;;;;;;;;;;;;28.97;22.96;97199.44;5097175;27;19941;-87
2023/12/26 05:10:18;;;;;;;;;;;;;;;28.98;22.87;97194.56;5100096;28;19919;-87
2023/12/26 05:12:44;;;;;;;;;;;;;;;29.05;22.87;97194.94;5099397;27;19920;-87
2023/12/26 05:15:10;;;;;;;;;;;;;;;28.56;23.42;97187.13;5097794;28;20295;-88
2023/12/26 05:17:36;;;;;;;;;;;;;;;28.50;23.26;97189.06;5098522;28;19924;-88
2023/12/26 05:20:02;;;;;;;;;;;;;;;28.06;23.78;97183.34;5099918;28;19923;-88
2023/12/26 05:22:28;;;;;;;;;;;;;;;28.04;23.95;97190.75;5098024;27;19970;-87
2023/12/26 05:24:54;;;;;;;;;;;;;;;28.03;23.95;97192.78;5097788;27;20464;-88
2023/12/26 05:27:20;;;;;;;;;;;;;;;28.18;23.78;97190.00;5092882;27;20006;-88
2023/12/26 05:29:46;;;;;;;;;;;;;;;28.11;24.00;97192.41;5096067;28;20043;-88
2023/12/26 05:32:12;;;;;;;;;;;;;;;28.23;23.90;97180.06;5100000;27;19935;-88
2023/12/26 05:34:38;;;;;;;;;;;;;;;28.47;23.48;97183.63;5093663;27;19923;-87
2023/12/26 05:37:04;;;;;;;;;;;;;;;28.40;23.71;97159.34;5100222;28;19985;-87
2023/12/26 05:39:30;;;;;;;;;;;;;;;27.45;24.80;97167.13;5097920;28;20020;-90
2023/12/26 05:41:56;;;;;;;;;;;;;;;28.24;24.10;97170.34;5099269;28;20053;-88
2023/12/26 05:44:22;;;;;;;;;;;;;;;28.83;23.58;97166.31;5099963;27;19928;-88
2023/12/26 05:46:48;;;;;;;;;;;;;;;29.04;23.13;97165.13;5098945;28;19931;-89
2023/12/26 05:49:14;;;;;;;;;;;;;;;28.48;24.00;97159.75;5099966;27;20048;-88
2023/12/26 05:51:40;;;;;;;;;;;;;;;28.87;23.22;97147.09;5082562;28;20054;-88
2023/12/26 05:54:05;;;;;;;;;;;;;;;28.55;23.61;97143.19;5096520;28;19920;-88
2023/12/26 05:56:31;;;;;;;;;;;;;;;28.65;23.43;97138.25;5098578;28;19924;-88
2023/12/26 05:58:58;;;;;;;;;;;;;;;28.10;24.25;97146.47;5099828;28;19975;-88
2023/12/26 06:01:24;;;;;;;;;;;;;;;27.83;24.81;97141.03;5095924;27;19920;-87
2023/12/26 06:03:50;;;;;;;;;;;;;;;28.16;24.32;97132.47;5100372;27;19923;-87
2023/12/26 06:06:17;;;;;;;;;;;;;;;28.37;24.16;97134.94;5097870;28;20368;-89
2023/12/26 06:08:43;;;;;;;;;;;;;;;27.94;24.56;97127.13;5099779;28;19923;-89
2023/12/26 06:11:09;;;;;;;;;;;;;;;27.88;24.68;97126.25;5095455;27;20887;-89
2023/12/26 06:13:36;;;;;;;;;;;;;;;28.54;23.77;97124.69;5100190;28;19970;-89
2023/12/26 06:16:02;;;;;;;;;;;;;;;28.59;23.90;97132.50;5101043;27;19975;-88
2023/12/26 06:18:28;;;;;;;;;;;;;;;28.54;23.92;97121.09;5098049;28;19962;-89
2023/12/26 06:20:54;;;;;;;;;;;;;;;28.28;24.22;97122.94;5097728;28;19966;-89
2023/12/26 06:23:20;;;;;;;;;;;;;;;28.41;24.26;97115.75;5098190;28;20436;-89
2023/12/26 06:25:46;;;;;;;;;;;;;;;28.34;24.31;97123.81;5077834;28;20014;-88
2023/12/26 06:28:12;;;;;;;;;;;;;;;27.84;24.96;97132.06;5073115;28;19966;-88
2023/12/26 06:30:38;;;;;;;;;;;;;;;28.62;24.00;97128.72;5095301;28;21415;-88
2023/12/26 06:33:04;;;;;;;;;;;;;;;27.88;24.99;97137.53;5095512;28;19920;-88
2023/12/26 06:35:30;;;;;;;;;;;;;;;27.86;25.04;97146.50;5096826;28;20346;-87
2023/12/26 06:37:56;;;;;;;;;;;;;;;27.73;25.30;97140.31;5098972;27;20022;-88
2023/12/26 06:40:22;;;;;;;;;;;;;;;27.77;25.10;97138.06;5061720;28;19968;-89
2023/12/26 06:42:48;;;;;;;;;;;;;;;27.90;25.07;97121.69;5095545;28;19920;-88
2023/12/26 06:45:14;;;;;;;;;;;;;;;28.01;24.84;97123.97;5092285;28;19924;-89
2023/12/26 06:47:42;;;;;;;;;;;;;;;27.24;25.76;97117.41;5098061;28;19927;-88
2023/12/26 06:50:08;;;;;;;;;;;;;;;27.65;25.38;97119.38;5095004;28;19920;-88
2023/12/26 06:52:35;;;;;;;;;;;;;;;28.25;24.84;97126.72;5096547;28;19920;-88
2023/12/26 06:55:01;;;;;;;;;;;;;;;27.77;25.53;97118.31;5098544;28;19928;-88
2023/12/26 06:57:27;;;;;;;;;;;;;;;28.09;25.16;97139.28;5096250;28;19920;-88
2023/12/26 06:59:53;;;;;;;;;;;;;;;28.59;24.48;97134.59;5097602;28;19927;-88
2023/12/26 07:02:19;;;;;;;;;;;;;;;28.44;25.01;97140.19;5094427;28;19965;-87
2023/12/26 07:04:45;;;;;;;;;;;;;;;28.77;24.40;97142.06;5096559;28;19928;-88
2023/12/26 07:07:11;;;;;;;;;;;;;;;28.32;24.72;97138.41;5095191;28;19927;-87
2023/12/26 07:09:38;;;;;;;;;;;;;;;27.41;26.26;97149.63;5093446;28;19968;-87
2023/12/26 07:12:04;;;;;;;;;;;;;;;27.47;26.81;97146.94;5096354;28;20011;-87
2023/12/26 07:14:30;;;;;;;;;;;;;;;28.07;25.21;97161.56;5097986;28;19980;-87
2023/12/26 07:16:56;;;;;;;;;;;;;;;28.20;25.37;97158.44;5099114;28;19924;-88
2023/12/26 07:19:23;;;;;;;;;;;;;;;28.60;25.04;97170.00;5095084;28;19920;-87
2023/12/26 07:21:49;;;;;;;;;;;;;;;28.68;24.96;97168.38;5097636;28;20607;-87
2023/12/26 07:24:15;;;;;;;;;;;;;;;29.04;24.43;97162.28;5097292;28;19973;-87
2023/12/26 07:26:41;;;;;;;;;;;;;;;28.86;24.44;97173.81;5097443;28;19928;-88
2023/12/26 07:29:07;;;;;;;;;;;;;;;28.39;25.23;97174.75;5091263;28;19924;-87
2023/12/26 07:31:33;;;;;;;;;;;;;;;28.56;25.20;97173.03;5096653;28;20396;-86
2023/12/26 07:34:02;;;;;;;;;;;;;;;28.11;25.44;97190.38;5094642;28;20070;-87
2023/12/26 07:36:28;;;;;;;;;;;;;;;28.61;25.07;97197.00;5079226;28;19931;-87
2023/12/26 07:38:54;;;;;;;;;;;;;;;29.20;24.56;97195.72;5099492;28;19927;-87
2023/12/26 07:41:20;;;;;;;;;;;;;;;28.75;24.79;97201.88;5097004;28;20575;-87
2023/12/26 07:43:47;;;;;;;;;;;;;;;28.78;25.03;97208.63;5097263;27;19939;-87
2023/12/26 07:46:14;;;;;;;;;;;;;;;29.09;24.91;97209.66;5098456;28;19924;-87
2023/12/26 07:48:39;;;;;;;;;;;;;;;28.67;25.24;97214.81;5093545;27;20015;-86
2023/12/26 07:51:08;;;;;;;;;;;;;;;27.00;29.36;97189.88;5097559;27;20015;-87
2023/12/26 07:53:34;;;;;;;;;;;;;;;27.42;26.88;97210.41;5098095;27;19928;-87
2023/12/26 07:56:00;;;;;;;;;;;;;;;27.80;26.23;97216.13;5100802;27;20414;-87
2023/12/26 07:58:26;;;;;;;;;;;;;;;28.45;25.45;97222.88;5095698;28;19935;-88
2023/12/26 08:00:52;;;;;;;;;;;;;;;28.06;27.89;97197.47;5079267;27;19924;-89
2023/12/26 08:03:18;;;;;;;;;;;;;;;27.38;26.68;97215.41;5076912;28;19920;-87
2023/12/26 08:05:44;;;;;;;;;;;;;;;26.45;28.08;97237.06;5097611;27;19920;-88
2023/12/26 08:08:11;;;;;;;;;;;;;;;26.19;28.33;97230.97;5099456;27;19923;-87
2023/12/26 08:10:37;;;;;;;;;;;;;;;26.45;28.08;97235.03;5101259;27;19981;-88
2023/12/26 08:13:03;;;;;;;;;;;;;;;27.64;26.66;97230.63;5100184;27;19920;-89
2023/12/26 08:15:30;;;;;;;;;;;;;;;27.09;26.99;97229.28;5099788;27;20364;-86
2023/12/26 08:17:56;;;;;;;;;;;;;;;27.53;26.63;97233.19;5101369;27;19973;-87
2023/12/26 08:20:22;;;;;;;;;;;;;;;27.94;26.07;97226.69;5100196;28;19927;-85
2023/12/26 08:22:48;;;;;;;;;;;;;;;28.20;25.71;97231.84;5104791;28;19927;-86
2023/12/26 08:25:14;;;;;;;;;;;;;;;28.23;25.40;97236.53;5104420;27;19916;-87
2023/12/26 08:27:40;;;;;;;;;;;;;;;28.54;24.97;97231.25;5098530;27;20405;-88
2023/12/26 08:30:07;;;;;;;;;;;;;;;28.62;25.20;97238.88;5098824;27;19987;-85
2023/12/26 08:32:33;;;;;;;;;;;;;;;28.72;24.95;97240.38;5103612;27;19920;-86
2023/12/26 08:35:00;;;;;;;;;;;;;;;27.40;26.59;97235.44;5102036;27;19951;-86
2023/12/26 08:37:27;;;;;;;;;;;;;;;26.78;27.46;97252.06;5105628;27;19920;-86
2023/12/26 08:39:53;;;;;;;;;;;;;;;26.71;27.79;97253.16;5101096;27;19959;-88
2023/12/26 08:42:19;;;;;;;;;;;;;;;26.88;27.22;97252.84;5102563;28;19920;-87
2023/12/26 08:44:45;;;;;;;;;;;;;;;27.82;26.15;97249.50;5100890;27;20190;-88
2023/12/26 08:47:11;;;;;;;;;;;;;;;27.48;26.39;97250.78;5099343;27;19924;-87
2023/12/26 08:49:37;;;;;;;;;;;;;;;26.83;27.33;97265.53;5102824;27;19916;-89
2023/12/26 08:52:03;;;;;;;;;;;;;;;26.73;28.32;97270.34;5097272;27;19920;-87
2023/12/26 08:54:29;;;;;;;;;;;;;;;26.57;27.88;97267.09;5101445;27;19916;-88
2023/12/26 08:56:55;;;;;;;;;;;;;;;27.67;26.13;97262.75;5099758;27;19942;-89
2023/12/26 08:59:21;;;;;;;;;;;;;;;27.79;26.09;97279.44;5098678;27;20337;-88
2023/12/26 09:01:47;;;;;;;;;;;;;;;28.55;25.16;97275.16;5096670;27;19969;-89
2023/12/26 09:04:13;;;;;;;;;;;;;;;29.06;24.26;97281.28;5103885;28;20302;-87
2023/12/26 09:06:39;;;;;;;;;;;;;;;28.15;27.75;97277.66;5102037;28;20010;-87
2023/12/26 09:09:05;;;;;;;;;;;;;;;27.97;25.47;97284.97;5101260;28;19920;-88
2023/12/26 09:11:32;;;;;;;;;;;;;;;28.08;25.32;97288.06;5105383;27;19974;-88
2023/12/26 09:13:58;;;;;;;;;;;;;;;28.54;24.69;97290.56;5102599;28;19919;-91
2023/12/26 09:16:24;;;;;;;;;;;;;;;29.08;24.29;97292.13;5099770;27;19924;-87
2023/12/26 09:18:50;;;;;;;;;;;;;;;29.19;24.24;97293.13;5100728;27;19928;-90
2023/12/26 09:21:16;;;;;;;;;;;;;;;28.68;24.95;97290.59;5098048;27;19923;-90
2023/12/26 09:23:42;;;;;;;;;;;;;;;29.40;24.07;97288.34;5106450;27;19924;-92
2023/12/26 09:26:08;;;;;;;;;;;;;;;30.01;23.58;97272.31;5107284;27;20492;-88
2023/12/26 09:28:34;;;;;;;;;;;;;;;29.58;23.43;97284.50;5103629;28;19927;-90
2023/12/26 09:31:00;;;;;;;;;;;;;;;29.18;24.22;97277.44;5098713;27;19927;-91
2023/12/26 09:33:26;;;;;;;;;;;;;;;29.03;24.28;97281.50;5102910;27;19920;-89
2023/12/26 09:35:52;;;;;;;;;;;;;;;28.74;24.80;97291.50;5099326;27;19953;-90
2023/12/26 09:38:18;;;;;;;;;;;;;;;28.56;24.82;97283.19;5101221;27;20018;-89
2023/12/26 09:40:44;;;;;;;;;;;;;;;28.32;25.27;97290.88;5099930;27;19928;-92
2023/12/26 09:43:10;;;;;;;;;;;;;;;28.20;25.49;97296.78;5106917;27;20011;-90
2023/12/26 09:45:36;;;;;;;;;;;;;;;28.06;25.57;97286.97;5102013;28;20306;-90
2023/12/26 09:48:02;;;;;;;;;;;;;;;27.80;25.69;97294.31;5104452;28;20455;-91
2023/12/26 09:50:28;;;;;;;;;;;;;;;28.39;25.06;97296.16;5108529;28;20623;-90
2023/12/26 09:52:58;;;;;;;;;;;;;;;28.94;24.73;97304.97;5101589;27;19928;-89
2023/12/26 09:55:27;;;;;;;;;;;;;;;29.17;24.58;97309.00;5102917;27;20687;-89
2023/12/26 09:57:57;;;;;;;;;;;;;;;28.39;25.35;97304.63;5097548;28;19986;-88
2023/12/26 10:00:25;;;;;;;;;;;;;;;27.96;25.86;97303.16;5101563;27;20018;-88
2023/12/26 10:02:51;;;;;;;;;;;;;;;29.09;26.97;97305.78;5103269;27;19967;-89
2023/12/26 10:05:18;;;;;;;;;;;;;;;27.82;25.79;97305.94;5085372;28;20014;-89
2023/12/26 10:07:43;;;;;;;;;;;;;;;27.05;27.32;97304.78;5100275;27;19923;-88
2023/12/26 10:10:19;;;;;;;;;;;;;;;26.60;27.80;97299.94;5101051;28;20022;-90
2023/12/26 10:12:49;;;;;;;;;;;;;;;28.04;26.42;97298.75;5104600;27;20073;-90
2023/12/26 10:15:15;;;;;;;;;;;;;;;27.83;29.02;97302.63;5100937;27;20494;-92
2023/12/26 10:17:43;;;;;;;;;;;;;;;26.78;29.60;97301.97;5110189;27;19930;-92
2023/12/26 10:20:15;;;;;;;;;;;;;;;27.54;26.40;97299.59;5104454;28;19928;-90
2023/12/26 10:22:42;;;;;;;;;;;;;;;28.25;25.17;97293.28;5101317;27;20477;-89
2023/12/26 10:25:09;;;;;;;;;;;;;;;28.84;24.68;97300.69;5102543;27;19928;-90
2023/12/26 10:27:36;;;;;;;;;;;;;;;28.95;24.14;97300.88;5097179;28;19928;-90
2023/12/26 10:30:02;;;;;;;;;;;;;;;28.03;25.42;97302.84;5114598;28;19931;-92
2023/12/26 10:32:28;;;;;;;;;;;;;;;28.10;25.23;97315.03;5102229;28;19924;-92
2023/12/26 10:34:54;;;;;;;;;;;;;;;28.95;24.30;97317.06;5099664;28;19939;-90
2023/12/26 10:37:25;;;;;;;;;;;;;;;29.31;23.81;97331.63;5096133;28;19970;-88
2023/12/26 10:39:51;;;;;;;;;;;;;;;29.28;23.59;97326.19;5098091;28;19927;-90
2023/12/26 10:42:18;;;;;;;;;;;;;;;27.97;25.40;97335.00;5100277;28;19920;-90
2023/12/26 10:45:10;;;;;;;;;;;;;;;27.45;25.71;97333.47;5106505;28;19927;-89
2023/12/26 10:47:40;;;;;;;;;;;;;;;26.70;27.80;97330.44;5099620;28;19931;-89
2023/12/26 10:50:08;;;;;;;;;;;;;;;26.90;26.58;97329.19;5099285;28;19923;-89
2023/12/26 10:52:36;;;;;;;;;;;;;;;27.50;26.23;97337.69;5097933;28;20391;-90
2023/12/26 10:55:02;;;;;;;;;;;;;;;28.38;24.56;97333.38;5100057;28;19920;-89
2023/12/26 10:57:29;;;;;;;;;;;;;;;28.92;24.43;97330.13;5100003;28;21016;-90
2023/12/26 13:51:31;;;;;;;;;;;;;;;26.56;24.24;97485.13;5111288;28;19926;-91
2023/12/26 13:54:15;;;;;;;;;;;;;;;26.45;24.71;97493.22;5099649;27;19924;-90
2023/12/26 13:57:00;;;;;;;;;;;;;;;25.71;27.41;97484.88;5088565;28;19926;-90
2023/12/26 13:59:44;;;;;;;;;;;;;;;25.92;25.16;97498.94;5108915;27;19919;-91
2023/12/26 14:02:29;;;;;;;;;;;;;;;25.28;26.40;97488.44;5112905;28;19966;-91
2023/12/26 14:05:14;;;;;;;;;;;;;;;25.66;25.76;97510.78;5110244;27;19924;-91
2023/12/26 14:07:58;;;;;;;;;;;;;;;26.91;24.09;97506.19;5113005;27;19959;-92
2023/12/26 14:10:43;;;;;;;;;;;;;;;26.79;26.35;97512.00;5117485;27;19920;-91
2023/12/26 14:13:28;;;;;;;;;;;;;;;27.14;23.65;97508.41;5118815;28;19916;-91
2023/12/26 14:16:12;;;;;;;;;;;;;;;27.30;23.48;97507.34;5116364;28;19924;-91
2023/12/26 14:18:57;;;;;;;;;;;;;;;26.53;24.44;97514.22;5109140;28;19920;-91
2023/12/26 14:22:02;;;;;;;;;;;;;;;27.68;22.98;97509.72;5119128;27;20057;-91
2023/12/26 14:24:48;;;;;;;;;;;;;;;28.00;22.64;97514.69;5109812;28;19926;-90
2023/12/26 14:27:32;;;;;;;;;;;;;;;27.50;23.79;97512.53;5113903;28;19927;-91
2023/12/26 14:30:17;;;;;;;;;;;;;;;28.09;22.67;97520.31;5116597;28;19938;-91
2023/12/26 14:33:02;;;;;;;;;;;;;;;28.28;22.57;97504.09;5097997;28;19936;-92
2023/12/26 14:35:47;;;;;;;;;;;;;;;28.80;21.80;97516.91;5123202;28;19927;-92
2023/12/26 14:38:31;;;;;;;;;;;;;;;29.33;21.11;97523.47;5127545;28;19920;-91
2023/12/26 14:41:16;;;;;;;;;;;;;;;27.01;24.02;97526.72;5117303;28;20015;-89
2023/12/26 14:44:00;;;;;;;;;;;;;;;27.81;22.70;97528.03;5104810;28;19927;-88
2023/12/26 14:46:45;;;;;;;;;;;;;;;27.11;23.68;97537.56;5109402;28;19924;-91
2023/12/26 14:49:30;;;;;;;;;;;;;;;25.77;24.96;97533.66;5116202;28;19926;-92
2023/12/26 14:52:14;;;;;;;;;;;;;;;26.36;24.49;97544.66;5103206;28;19959;-92
2023/12/26 14:54:59;;;;;;;;;;;;;;;27.22;23.31;97549.16;5100036;28;19924;-91
2023/12/26 14:57:44;;;;;;;;;;;;;;;27.79;22.92;97541.03;5102355;28;20391;-90
2023/12/26 15:00:29;;;;;;;;;;;;;;;28.42;22.14;97542.94;5101013;28;20099;-92
2023/12/26 15:02:55;;;;;;;;;;;;;;;27.84;22.74;97543.22;5087892;28;20343;-91
2023/12/26 15:05:21;;;;;;;;;;;;;;;27.26;23.93;97546.16;5097453;28;19924;-91
2023/12/26 15:07:47;;;;;;;;;;;;;;;27.39;23.32;97558.13;5098760;28;19927;-92
2023/12/26 15:10:13;;;;;;;;;;;;;;;27.48;23.22;97546.06;5096715;28;19928;-92
2023/12/26 15:12:39;;;;;;;;;;;;;;;28.34;23.48;97559.44;5094589;28;20011;-90
2023/12/26 15:15:05;;;;;;;;;;;;;;;28.79;21.82;97554.88;5098040;28;20007;-90
2023/12/26 15:17:31;;;;;;;;;;;;;;;28.94;21.57;97567.81;5098854;28;19924;-89
2023/12/26 15:19:58;;;;;;;;;;;;;;;29.09;21.55;97554.56;5105310;28;19941;-90
2023/12/26 15:22:24;;;;;;;;;;;;;;;29.00;21.29;97565.91;5112943;28;19943;-91
2023/12/26 15:24:50;;;;;;;;;;;;;;;29.22;21.20;97566.41;5106801;28;19919;-91
2023/12/26 15:27:16;;;;;;;;;;;;;;;29.33;21.24;97561.03;5108418;28;20010;-90
2023/12/26 15:29:42;;;;;;;;;;;;;;;29.16;21.25;97568.31;5112798;28;20031;-89
2023/12/26 15:32:09;;;;;;;;;;;;;;;29.42;21.05;97563.78;5099804;28;19926;-88
2023/12/26 15:34:36;;;;;;;;;;;;;;;29.18;21.27;97563.00;5096520;28;20448;-89
2023/12/26 15:37:03;;;;;;;;;;;;;;;29.09;21.41;97570.72;5094168;28;20429;-89
2023/12/26 15:39:29;;;;;;;;;;;;;;;28.58;23.17;97579.28;5096189;28;20375;-88
2023/12/26 15:41:55;;;;;;;;;;;;;;;28.36;21.86;97587.19;5095586;28;19924;-87